Hlavní strana
METAR-TAF:

METAR-TAF

Letiště :

Champaign / Urbana, Illinois, Spojené státy americké

zeměpisná šířka: 40-01-56N, zeměpisná délka: 088-16-24W, výška: 229 m

Aktuální stav počasí

Zpráva byla vytvořena před 40 minutami, v 16:53 UTC
Západní vítr 6 kt
Teplota 1°C
Vlhkost vzduchu 69%
Tlak 1029 hPa
Viditelnost: 14.5 km
Jasno

METAR: KCMI 151653Z 27006KT 9SM CLR 01/M04 A3039 RMK AO2 SLP300 T00111039

Čas: 11:33 (17:33 UTC)

Předpověď počasí

Zpráva byla vytvořena před 5 hodinami a 52 minutami, v 11:41 UTC
Předpověď platná od 15 v 12 UTC do 16 v 12 UTC
Jihozápadní vítr 5 kt
Viditelnost: 6.4 km
Jasno
kouřmo
Od 15 v 1400 UTC
Západní vítr 5 kt
Viditelnost: 10 km
Jasno
Od 16 v 0800 UTC
Severovýchodní vítr 5 kt
Viditelnost: 10 km
Oblačno až skoro zataženo ve výšce 3500 ft
Od 16 v 1000 UTC
Severovýchodní vítr 5 kt
Viditelnost: 10 km
Oblačno až skoro zataženo ve výšce 2500 ft

TAF: KCMI 151141Z 1512/1612 22005KT 4SM BR SKC FM151400 26005KT P6SM SKC FM160800 04005KT P6SM BKN035 FM161000 04005KT P6SM BKN025

Stav a předpovědi počasí z více než 4 000 letišť (zprávy METAR a TAF).

Červené a žluté tečky na mapě představují dostupné meteorologické stanice.

Když kurzor umístíte na tečku, zobrazí se název stanice.

Pak kliknutím zobrazíte stav a předpověď počasí.

Chcete-li změnit mapu, kliknutím na zelené tlačítko se znaménkem +mapu přiblížíte, kliknutím na zelené tlačítko se znaménkem – mapu oddálíte a kliknutím na zelené šipky přejdete na sousední mapy.


METAR-TAF: